Lander, WY (82520)

1:56 AM MST on February 07, 2016 (GMT -0700)
Hunt | | Change Station
CLOSE
Current Station
Airport
Location: Lander,
Elevation: 5558 ft
Nearby Weather Stations

Elev 5558 ft 42.82 °N, 108.73 °W | Updated 3 minutes ago

Partly Cloudy
Partly Cloudy
25 °F
Feels Like 21 °F
N
4
Wind Variable Wind from North

Today
High -- | Low -- °F
--% Chance of Precip.
Yesterday
High -- | Low -- °F
Precip. -- in
Pressure 30.24 in
Visibility 10.0 miles
Clouds Clear
Windchill 21 °F
Dew Point 13 °F
Humidity 60%
Rainfall 0.00 in
Snow Depth Not available.
7:22 AM 5:35 PM
Waning Crescent, 2% visible
METAR KLND 070853Z AUTO 35003KT 10SM CLR M04/M11 A3018 RMK AO2 SLP240 T10391106 55001
Pressure 30.24 in
Visibility 10.0 miles
Clouds Clear
Windchill 21 °F
Dew Point 13 °F
Humidity 60%
Rainfall 0.00 in
Snow Depth Not available.
7:22 AM 5:35 PM
Waning Crescent, 2% visible
METAR KLND 070853Z AUTO 35003KT 10SM CLR M04/M11 A3018 RMK AO2 SLP240 T10391106 55001

10-Day Weather Forecast

Almanac

Astronomy

Feb. 07, 2016 Rise Set
Actual Time
Civil Twilight
Nautical Twilight
Astronomical Twilight
Moon
Length of Visible Light
Length of Day
Tomorrow will be .
, % of the Moon is Illuminated

Today's Extremes

State Highs State Lows

Community

WunderPhotos

Upload Photos

1,891,171 photos uploaded!

WunderBlog® & News

Nearby

Air Quality

  Air Quality AQ Index Pollutant
Not available.

Snow Depth

Station Depth Elevation

Earthquake Activity

City Distance Mag. Time & Date
Minimum magnitude displayed is 2.5.

Coastal Water Temperatures

Place Temperature

Stations

Nearby Weather Stations

Station Location Temp. Windchill Dew Point Humidity Wind Precip. Elev Updated Type
                   

Watches & Warnings

There are currently no watches in effect.